createdAt,value
2022-08-05T00:00:17.492Z,3.07
2022-08-05T00:02:51.033Z,3.70
2022-08-05T00:05:27.105Z,3.93
2022-08-05T00:08:35.216Z,3.90
2022-08-05T00:11:03.105Z,3.50
2022-08-05T00:13:39.648Z,3.37
2022-08-05T00:16:12.490Z,4.13
2022-08-05T00:18:42.568Z,3.53
2022-08-05T00:21:14.396Z,3.37
2022-08-05T00:23:46.453Z,3.10
2022-08-05T00:26:22.036Z,3.47
2022-08-05T00:28:49.774Z,2.70
2022-08-05T00:31:16.826Z,2.80
2022-08-05T00:34:53.755Z,3.10
2022-08-05T00:37:12.461Z,3.40
2022-08-05T00:39:57.059Z,3.00
2022-08-05T00:42:38.167Z,3.70
2022-08-05T00:45:08.877Z,4.30
2022-08-05T00:47:56.601Z,3.40
2022-08-05T00:50:25.708Z,4.03
2022-08-05T00:52:55.076Z,4.40
2022-08-05T00:55:23.357Z,4.77
2022-08-05T00:58:16.715Z,4.63
2022-08-05T01:00:47.562Z,4.50
2022-08-05T01:03:22.530Z,4.37
2022-08-05T01:05:54.446Z,3.10
2022-08-05T01:08:40.529Z,3.80
2022-08-05T01:11:33.457Z,4.07
2022-08-05T01:14:15.589Z,4.27
2022-08-05T01:17:01.470Z,3.97
2022-08-05T01:20:01.615Z,3.10
2022-08-05T01:23:15.525Z,3.50
2022-08-05T01:26:28.773Z,3.87
2022-08-05T01:29:27.507Z,3.70
2022-08-05T01:32:04.399Z,3.57
2022-08-05T01:34:34.229Z,3.87
2022-08-05T01:37:24.752Z,3.60
2022-08-05T01:39:58.672Z,4.50
2022-08-05T01:42:28.245Z,4.60
2022-08-05T01:44:59.895Z,4.63
2022-08-05T01:47:39.026Z,3.73
2022-08-05T01:50:16.072Z,4.30
2022-08-05T01:52:50.096Z,4.27
2022-08-05T01:55:21.270Z,3.60
2022-08-05T01:58:11.071Z,4.00
2022-08-05T02:00:42.480Z,4.50
2022-08-05T02:03:29.043Z,4.20
2022-08-05T02:06:03.749Z,4.17
2022-08-05T02:08:58.004Z,3.47
2022-08-05T02:12:01.688Z,3.90
2022-08-05T02:14:39.911Z,3.80
2022-08-05T02:18:28.706Z,3.50
2022-08-05T02:20:20.497Z,3.83
2022-08-05T02:22:59.828Z,4.40
2022-08-05T02:25:33.951Z,4.03
2022-08-05T02:28:28.294Z,3.20
2022-08-05T02:31:08.326Z,4.20
2022-08-05T02:33:57.859Z,4.73
2022-08-05T02:36:31.310Z,3.80
2022-08-05T02:39:02.217Z,4.67
2022-08-05T02:41:42.884Z,3.47
2022-08-05T02:44:19.749Z,3.70
2022-08-05T02:46:58.464Z,3.60
2022-08-05T02:49:36.492Z,4.60
2022-08-05T02:52:10.030Z,3.53
2022-08-05T02:54:42.308Z,3.50
2022-08-05T02:58:11.266Z,4.07
2022-08-05T03:00:08.383Z,5.07
2022-08-05T03:02:40.583Z,4.30
2022-08-05T03:05:13.320Z,4.30
2022-08-05T03:08:00.257Z,3.50
2022-08-05T03:10:29.034Z,3.97
2022-08-05T03:15:23.212Z,3.50
2022-08-05T03:17:55.470Z,3.87
2022-08-05T03:20:24.465Z,4.00
2022-08-05T03:22:53.295Z,3.70
2022-08-05T03:25:33.079Z,4.27
2022-08-05T03:28:03.984Z,4.40
2022-08-05T03:30:34.082Z,4.37
2022-08-05T03:33:04.094Z,4.20
2022-08-05T03:35:33.991Z,3.77
2022-08-05T03:38:07.745Z,4.30
2022-08-05T03:40:34.798Z,3.73
2022-08-05T03:43:59.149Z,4.73
2022-08-05T03:45:57.514Z,4.57
2022-08-05T03:48:29.939Z,3.73
2022-08-05T03:52:38.943Z,4.27
2022-08-05T03:55:52.117Z,4.10
2022-08-05T03:57:41.288Z,3.80
2022-08-05T04:00:07.397Z,4.00
2022-08-05T04:02:58.294Z,4.50
2022-08-05T04:05:33.538Z,3.90
2022-08-05T04:08:29.661Z,5.00
2022-08-05T04:10:56.432Z,4.03
2022-08-05T04:13:26.312Z,4.63
2022-08-05T04:16:14.416Z,4.40
2022-08-05T04:18:41.557Z,4.00
2022-08-05T04:21:11.152Z,4.30
2022-08-05T04:24:05.014Z,3.90
2022-08-05T04:26:26.478Z,4.40
2022-08-05T04:29:00.723Z,4.70
2022-08-05T04:31:38.524Z,4.60
2022-08-05T04:34:33.031Z,4.43
2022-08-05T04:36:53.940Z,4.47
2022-08-05T04:39:21.865Z,4.03
2022-08-05T04:41:51.109Z,4.73
2022-08-05T04:44:21.375Z,4.67
2022-08-05T04:46:56.319Z,3.40
2022-08-05T04:49:24.678Z,4.27
2022-08-05T04:52:06.205Z,4.77
2022-08-05T04:54:34.913Z,4.17
2022-08-05T04:57:01.960Z,4.40
2022-08-05T04:59:38.327Z,4.37
2022-08-05T05:02:37.701Z,4.63
2022-08-05T05:05:02.229Z,4.77
2022-08-05T05:07:32.610Z,3.47
2022-08-05T05:10:02.200Z,4.27
2022-08-05T05:12:30.042Z,3.27
2022-08-05T05:14:57.077Z,4.60
2022-08-05T05:17:56.420Z,3.90
2022-08-05T05:20:13.551Z,4.37
2022-08-05T05:22:43.962Z,4.20
2022-08-05T05:25:16.765Z,2.80
2022-08-05T05:27:53.591Z,3.70
2022-08-05T05:30:30.878Z,3.73
2022-08-05T05:33:08.879Z,3.50
2022-08-05T05:35:46.766Z,4.40
2022-08-05T05:38:22.592Z,3.20
2022-08-05T05:40:58.455Z,4.17
2022-08-05T05:43:54.225Z,3.40
2022-08-05T05:46:17.823Z,3.37
2022-08-05T05:48:48.233Z,3.33
2022-08-05T05:51:27.714Z,3.33
2022-08-05T05:53:58.763Z,3.30
2022-08-05T05:56:33.084Z,3.80
2022-08-05T05:59:08.144Z,3.40
2022-08-05T06:01:39.504Z,3.87
2022-08-05T06:04:11.731Z,4.30
2022-08-05T06:06:42.743Z,3.37
2022-08-05T06:09:18.202Z,3.33
2022-08-05T06:12:01.824Z,4.10
2022-08-05T06:14:30.935Z,3.00
2022-08-05T06:16:58.647Z,3.70
2022-08-05T06:19:34.943Z,3.23
2022-08-05T06:22:07.313Z,3.67
2022-08-05T06:24:41.234Z,3.00
2022-08-05T06:28:09.251Z,2.73
2022-08-05T06:30:19.987Z,2.60
2022-08-05T06:32:50.739Z,3.17
2022-08-05T06:36:04.002Z,3.20
2022-08-05T06:38:11.189Z,2.40
2022-08-05T06:40:42.075Z,2.37
2022-08-05T06:43:58.027Z,2.93
2022-08-05T06:46:04.066Z,2.37
2022-08-05T06:48:52.639Z,2.40
2022-08-05T06:51:29.466Z,2.57
2022-08-05T06:54:02.367Z,2.90
2022-08-05T06:56:34.519Z,2.57
2022-08-05T06:59:03.593Z,2.50
2022-08-05T07:01:36.677Z,2.23
2022-08-05T07:04:04.286Z,2.53
2022-08-05T07:06:32.192Z,1.90
2022-08-05T07:09:04.221Z,2.00
2022-08-05T07:11:37.077Z,2.07
2022-08-05T07:14:29.591Z,1.87
2022-08-05T07:17:58.837Z,1.93
2022-08-05T07:20:34.042Z,2.17
2022-08-05T07:22:37.946Z,1.73
2022-08-05T07:25:22.111Z,1.97
2022-08-05T07:27:58.828Z,1.90
2022-08-05T07:30:39.218Z,1.90
2022-08-05T07:33:10.604Z,1.90
2022-08-05T07:36:02.709Z,2.40
2022-08-05T07:38:34.192Z,1.87
2022-08-05T07:41:35.152Z,1.70
2022-08-05T07:43:57.149Z,1.90
2022-08-05T07:46:29.002Z,1.90
2022-08-05T07:49:02.529Z,2.07
2022-08-05T07:51:40.963Z,1.87
2022-08-05T07:54:16.537Z,1.60
2022-08-05T07:57:13.641Z,2.17
2022-08-05T07:59:39.962Z,1.93
2022-08-05T08:02:16.733Z,1.87
2022-08-05T08:04:48.411Z,2.40
2022-08-05T08:07:22.440Z,2.10
2022-08-05T08:09:52.345Z,2.20
2022-08-05T08:12:35.549Z,2.27
2022-08-05T08:15:09.688Z,1.43
2022-08-05T08:17:46.299Z,2.17
2022-08-05T08:21:00.163Z,3.23
2022-08-05T08:24:00.457Z,1.97
2022-08-05T08:26:00.124Z,1.27
2022-08-05T08:28:36.137Z,1.83
2022-08-05T08:31:07.724Z,1.33
2022-08-05T08:33:37.500Z,2.07
2022-08-05T08:38:56.972Z,1.77
2022-08-05T08:41:52.377Z,1.10
2022-08-05T08:45:25.033Z,1.53
2022-08-05T08:47:46.993Z,1.43
2022-08-05T08:50:07.820Z,1.53
2022-08-05T08:52:53.975Z,1.70
2022-08-05T08:56:03.140Z,1.20
2022-08-05T08:58:12.997Z,2.00
2022-08-05T09:00:42.500Z,1.63
2022-08-05T09:03:11.606Z,2.30
2022-08-05T09:06:08.603Z,1.53
2022-08-05T09:08:27.454Z,1.77
2022-08-05T09:10:58.238Z,1.30
2022-08-05T09:13:31.883Z,1.60
2022-08-05T09:16:13.753Z,1.47
2022-08-05T09:18:44.466Z,1.67
2022-08-05T09:21:20.913Z,1.83
2022-08-05T09:24:10.158Z,1.37
2022-08-05T09:26:37.809Z,1.40
2022-08-05T09:29:07.062Z,1.63
2022-08-05T09:32:41.512Z,2.40
2022-08-05T09:34:26.109Z,1.90
2022-08-05T09:36:55.974Z,1.40
2022-08-05T09:39:42.030Z,1.77
2022-08-05T09:42:23.131Z,1.80
2022-08-05T09:44:55.989Z,1.50
2022-08-05T09:47:48.041Z,1.50
2022-08-05T09:50:38.849Z,1.23
2022-08-05T09:53:09.131Z,1.33
2022-08-05T09:55:56.621Z,1.20
2022-08-05T09:58:29.253Z,1.60
2022-08-05T10:01:13.382Z,0.97
2022-08-05T10:04:00.637Z,1.60
2022-08-05T10:06:28.555Z,2.03
2022-08-05T10:08:57.186Z,1.97
2022-08-05T10:11:31.404Z,2.10
2022-08-05T10:14:26.804Z,1.37
2022-08-05T10:16:58.773Z,1.50
2022-08-05T10:19:46.193Z,1.40
2022-08-05T10:22:29.770Z,1.63
2022-08-05T10:24:57.886Z,1.20
2022-08-05T10:27:26.339Z,1.70
2022-08-05T10:31:20.121Z,1.70
2022-08-05T10:33:02.593Z,1.63
2022-08-05T10:35:33.776Z,1.87
2022-08-05T10:38:08.665Z,1.67
2022-08-05T10:40:45.956Z,3.10
2022-08-05T10:43:36.351Z,1.60
2022-08-05T10:46:07.367Z,1.73
2022-08-05T10:48:56.831Z,1.67
2022-08-05T10:51:28.599Z,1.50
2022-08-05T10:54:01.597Z,2.30
2022-08-05T10:56:49.429Z,1.60
2022-08-05T11:00:03.500Z,1.40
2022-08-05T11:02:34.645Z,1.40
2022-08-05T11:05:07.015Z,1.70
2022-08-05T11:08:02.693Z,1.93
2022-08-05T11:10:27.732Z,1.70
2022-08-05T11:12:57.561Z,1.33
2022-08-05T11:16:00.379Z,1.83
2022-08-05T11:18:34.105Z,2.00
2022-08-05T11:21:11.304Z,1.53
2022-08-05T11:24:04.265Z,1.80
2022-08-05T11:26:43.311Z,1.77
2022-08-05T11:29:35.016Z,1.20
2022-08-05T11:32:30.162Z,1.60
2022-08-05T11:34:58.203Z,1.23
2022-08-05T11:38:26.173Z,1.47
2022-08-05T11:41:34.526Z,1.57
2022-08-05T11:44:40.795Z,1.30
2022-08-05T11:47:11.115Z,1.40
2022-08-05T11:49:42.927Z,1.60
2022-08-05T11:52:11.295Z,1.77
2022-08-05T11:54:40.563Z,1.90
2022-08-05T11:57:26.101Z,1.67
2022-08-05T11:59:55.073Z,2.00
2022-08-05T12:02:33.141Z,1.80
2022-08-05T12:05:08.112Z,1.80
2022-08-05T12:08:08.864Z,1.33
2022-08-05T12:10:38.459Z,1.80
2022-08-05T12:13:27.999Z,1.77
2022-08-05T12:16:14.469Z,1.90
2022-08-05T12:18:52.219Z,1.70
2022-08-05T12:21:29.832Z,1.40
2022-08-05T12:24:08.905Z,1.70
2022-08-05T12:26:44.011Z,1.77
2022-08-05T12:29:23.690Z,1.57
2022-08-05T12:31:56.697Z,1.83
2022-08-05T12:34:32.088Z,1.80
2022-08-05T12:37:10.916Z,1.77
2022-08-05T12:39:51.064Z,1.90
2022-08-05T12:42:20.829Z,2.00
2022-08-05T12:44:48.962Z,1.63
2022-08-05T12:47:30.651Z,2.00
2022-08-05T12:50:03.065Z,1.77
2022-08-05T12:52:39.487Z,2.00
2022-08-05T12:55:25.397Z,2.07
2022-08-05T12:58:49.054Z,2.00
2022-08-05T13:02:03.141Z,1.60
2022-08-05T13:03:41.511Z,2.13
2022-08-05T13:06:15.855Z,1.57
2022-08-05T13:08:50.836Z,2.40
2022-08-05T13:11:56.877Z,1.50
2022-08-05T13:14:24.673Z,3.10
2022-08-05T13:17:06.207Z,1.67
2022-08-05T13:19:40.393Z,2.10
2022-08-05T13:22:28.010Z,1.80
2022-08-05T13:25:00.671Z,1.63
2022-08-05T13:27:37.365Z,2.17
2022-08-05T13:30:35.400Z,2.53
2022-08-05T13:32:56.409Z,2.07
2022-08-05T13:35:43.007Z,2.13
2022-08-05T13:38:19.982Z,2.10
2022-08-05T13:40:55.987Z,2.00
2022-08-05T13:43:23.367Z,2.03
2022-08-05T13:45:50.983Z,1.90
2022-08-05T13:48:57.549Z,2.13
2022-08-05T13:51:10.362Z,1.80
2022-08-05T13:53:48.028Z,2.10
2022-08-05T13:56:18.909Z,2.37
2022-08-05T13:58:53.155Z,3.03
2022-08-05T14:01:27.442Z,1.77
2022-08-05T14:04:26.653Z,1.60
2022-08-05T14:06:58.740Z,2.30
2022-08-05T14:09:43.015Z,2.30
2022-08-05T14:12:17.413Z,2.23
2022-08-05T14:14:46.421Z,1.40
2022-08-05T14:17:16.870Z,1.60
2022-08-05T14:19:55.469Z,1.30
2022-08-05T14:22:24.584Z,2.23
2022-08-05T14:24:57.980Z,1.70
2022-08-05T14:27:28.368Z,1.90
2022-08-05T14:29:56.374Z,1.90
2022-08-05T14:32:27.704Z,2.57
2022-08-05T14:34:56.767Z,1.67
2022-08-05T14:37:44.810Z,2.27
2022-08-05T14:40:14.000Z,1.60
2022-08-05T14:42:44.150Z,1.83
2022-08-05T14:45:11.677Z,1.83
2022-08-05T14:48:02.948Z,1.80
2022-08-05T14:50:26.470Z,1.77
2022-08-05T14:52:57.779Z,2.23
2022-08-05T14:55:38.654Z,1.80
2022-08-05T14:58:11.680Z,1.90
2022-08-05T15:00:59.081Z,2.40
2022-08-05T15:03:33.939Z,2.30
2022-08-05T15:06:13.535Z,2.27
2022-08-05T15:08:59.822Z,2.10
2022-08-05T15:11:51.862Z,2.30
2022-08-05T15:14:34.642Z,2.03
2022-08-05T15:17:44.249Z,2.50
2022-08-05T15:19:56.937Z,2.10
2022-08-05T15:22:27.204Z,2.70
2022-08-05T15:24:56.205Z,3.00
2022-08-05T15:27:25.437Z,2.40
2022-08-05T15:29:54.241Z,3.00
2022-08-05T15:32:27.164Z,1.97
2022-08-05T15:34:54.945Z,2.47
2022-08-05T15:38:35.003Z,2.80
2022-08-05T15:40:58.488Z,2.00
2022-08-05T15:43:09.192Z,2.50
2022-08-05T15:45:45.969Z,2.37
2022-08-05T15:48:15.218Z,2.33
2022-08-05T15:50:43.933Z,2.63
2022-08-05T15:53:13.605Z,2.07
2022-08-05T15:56:03.858Z,2.80
2022-08-05T15:58:35.597Z,3.00
2022-08-05T16:01:16.954Z,2.87
2022-08-05T16:03:50.314Z,2.50
2022-08-05T16:06:19.843Z,2.60
2022-08-05T16:08:50.396Z,2.40
2022-08-05T16:11:18.487Z,3.37
2022-08-05T16:13:48.465Z,2.87
2022-08-05T16:16:21.232Z,2.73
2022-08-05T16:18:52.988Z,3.10
2022-08-05T16:21:20.713Z,2.53
2022-08-05T16:24:39.500Z,3.03
2022-08-05T16:26:57.914Z,3.03
2022-08-05T16:29:26.987Z,3.80
2022-08-05T16:31:58.723Z,3.00
2022-08-05T16:34:27.284Z,3.47
2022-08-05T16:36:55.274Z,3.00
2022-08-05T16:39:22.853Z,3.43
2022-08-05T16:42:14.141Z,3.00
2022-08-05T16:44:44.283Z,2.70
2022-08-05T16:47:28.908Z,2.00
2022-08-05T16:50:06.696Z,3.10
2022-08-05T16:52:35.766Z,2.30
2022-08-05T16:55:04.458Z,2.50
2022-08-05T16:57:53.334Z,2.50
2022-08-05T17:00:25.967Z,2.40
2022-08-05T17:03:03.031Z,2.40
2022-08-05T17:05:31.201Z,2.70
2022-08-05T17:07:58.758Z,2.80
2022-08-05T17:10:30.405Z,2.50
2022-08-05T17:12:58.451Z,2.50
2022-08-05T17:15:29.346Z,2.30
2022-08-05T17:18:14.290Z,3.47
2022-08-05T17:20:42.458Z,2.93
2022-08-05T17:24:03.450Z,2.57
2022-08-05T17:25:59.217Z,3.60
2022-08-05T17:28:26.585Z,3.87
2022-08-05T17:30:55.909Z,2.70
2022-08-05T17:33:23.214Z,2.07
2022-08-05T17:36:08.423Z,3.00
2022-08-05T17:38:37.325Z,2.53
2022-08-05T17:41:11.576Z,2.80
2022-08-05T17:43:55.180Z,2.83
2022-08-05T17:46:23.690Z,2.13
2022-08-05T17:48:50.797Z,2.90
2022-08-05T17:51:21.886Z,2.07
2022-08-05T17:53:50.803Z,2.93
2022-08-05T17:56:22.725Z,2.83
2022-08-05T17:58:51.121Z,2.33
2022-08-05T18:01:18.931Z,2.40
2022-08-05T18:03:58.312Z,2.63
2022-08-05T18:06:31.133Z,3.03
2022-08-05T18:08:58.682Z,2.47
2022-08-05T18:11:33.423Z,2.50
2022-08-05T18:14:07.335Z,3.03
2022-08-05T18:16:51.479Z,2.50
2022-08-05T18:19:22.798Z,3.23
2022-08-05T18:22:09.801Z,2.93
2022-08-05T18:24:39.551Z,2.30
2022-08-05T18:27:18.094Z,2.80
2022-08-05T18:29:51.919Z,2.60
2022-08-05T18:32:20.898Z,2.57
2022-08-05T18:34:55.853Z,2.57
2022-08-05T18:37:34.605Z,2.67
2022-08-05T18:41:50.740Z,2.30
2022-08-05T18:42:57.230Z,2.53
2022-08-05T18:45:24.852Z,2.73
2022-08-05T18:47:56.778Z,2.50
2022-08-05T18:50:46.180Z,2.63
2022-08-05T18:53:20.834Z,3.00
2022-08-05T18:55:52.088Z,2.50
2022-08-05T18:58:28.887Z,3.70
2022-08-05T19:00:57.079Z,4.10
2022-08-05T19:03:55.110Z,3.70
2022-08-05T19:06:21.682Z,4.00
2022-08-05T19:08:49.769Z,4.70
2022-08-05T19:11:19.489Z,4.70
2022-08-05T19:14:01.016Z,5.37
2022-08-05T19:16:36.882Z,6.60
2022-08-05T19:19:14.525Z,5.60
2022-08-05T19:21:42.445Z,6.37
2022-08-05T19:24:12.540Z,6.80
2022-08-05T19:26:54.140Z,5.73
2022-08-05T19:29:23.780Z,5.77
2022-08-05T19:31:57.552Z,5.40
2022-08-05T19:34:25.632Z,5.87
2022-08-05T19:36:53.023Z,5.67
2022-08-05T19:39:20.104Z,6.53
2022-08-05T19:42:07.089Z,5.90
2022-08-05T19:44:45.233Z,6.90
2022-08-05T19:47:15.331Z,5.07
2022-08-05T19:49:45.189Z,6.30
2022-08-05T19:52:30.259Z,6.30
2022-08-05T19:55:00.398Z,5.13
2022-08-05T19:57:49.040Z,6.30
2022-08-05T20:00:22.145Z,5.83
2022-08-05T20:02:49.538Z,5.30
2022-08-05T20:05:24.429Z,6.50
2022-08-05T20:07:57.709Z,5.80
2022-08-05T20:10:26.689Z,6.13
2022-08-05T20:12:55.103Z,4.57
2022-08-05T20:15:51.647Z,5.73
2022-08-05T20:18:33.955Z,5.30
2022-08-05T20:20:58.237Z,4.93
2022-08-05T20:23:39.873Z,5.37
2022-08-05T20:26:17.300Z,4.90
2022-08-05T20:28:47.954Z,5.20
2022-08-05T20:31:16.338Z,6.00
2022-08-05T20:33:44.990Z,4.50
2022-08-05T20:36:14.291Z,5.50
2022-08-05T20:38:53.727Z,6.03
2022-08-05T20:41:26.914Z,4.97
2022-08-05T20:43:59.774Z,6.50
2022-08-05T20:46:29.073Z,12.93
2022-08-05T20:48:56.515Z,6.57
2022-08-05T20:51:23.952Z,6.27
2022-08-05T20:53:56.328Z,6.93
2022-08-05T20:56:28.191Z,6.73
2022-08-05T20:59:04.233Z,6.50
2022-08-05T21:01:42.064Z,7.30
2022-08-05T21:04:12.600Z,6.47
2022-08-05T21:06:45.469Z,6.70
2022-08-05T21:09:14.875Z,7.40
2022-08-05T21:12:07.661Z,7.50
2022-08-05T21:14:34.600Z,8.40
2022-08-05T21:17:05.069Z,8.27
2022-08-05T21:19:46.550Z,6.73
2022-08-05T21:22:18.322Z,7.23
2022-08-05T21:24:48.752Z,7.07
2022-08-05T21:27:16.579Z,8.00
2022-08-05T21:29:48.408Z,7.17
2022-08-05T21:32:20.026Z,7.03
2022-08-05T21:35:06.811Z,5.33
2022-08-05T21:37:34.942Z,5.97
2022-08-05T21:40:13.181Z,6.10
2022-08-05T21:42:44.712Z,5.53
2022-08-05T21:45:24.589Z,5.10
2022-08-05T21:47:55.657Z,5.30
2022-08-05T21:50:27.931Z,6.57
2022-08-05T21:52:58.979Z,5.77
2022-08-05T21:56:01.315Z,5.53
2022-08-05T21:58:24.979Z,5.13
2022-08-05T22:00:58.369Z,4.80
2022-08-05T22:03:52.852Z,5.40
2022-08-05T22:06:12.841Z,5.37
2022-08-05T22:08:42.514Z,5.10
2022-08-05T22:11:15.586Z,4.07
2022-08-05T22:14:19.894Z,4.10
2022-08-05T22:16:41.750Z,4.10
2022-08-05T22:20:02.971Z,3.97
2022-08-05T22:22:07.017Z,4.20
2022-08-05T22:24:53.537Z,4.17
2022-08-05T22:28:09.184Z,4.93
2022-08-05T22:30:35.105Z,4.30
2022-08-05T22:33:15.554Z,3.73
2022-08-05T22:35:48.483Z,3.43
2022-08-05T22:38:19.584Z,4.20
2022-08-05T22:40:49.858Z,4.40
2022-08-05T22:43:36.674Z,4.00
2022-08-05T22:46:13.110Z,3.23
2022-08-05T22:48:42.034Z,4.57
2022-08-05T22:51:22.376Z,4.60
2022-08-05T22:53:50.282Z,3.50
2022-08-05T22:56:18.109Z,3.40
2022-08-05T22:59:02.874Z,3.93
2022-08-05T23:02:03.985Z,3.00
2022-08-05T23:04:18.125Z,3.23
2022-08-05T23:06:45.538Z,3.23
2022-08-05T23:09:52.756Z,2.77
2022-08-05T23:12:02.564Z,2.17
2022-08-05T23:14:32.171Z,2.80
2022-08-05T23:17:24.333Z,2.60
2022-08-05T23:20:02.305Z,2.27
2022-08-05T23:22:30.803Z,2.50
2022-08-05T23:24:58.403Z,2.33
2022-08-05T23:27:31.324Z,2.60
2022-08-05T23:30:10.774Z,2.60
2022-08-05T23:32:37.966Z,2.07
2022-08-05T23:35:12.589Z,2.50
2022-08-05T23:37:39.721Z,2.40
2022-08-05T23:40:09.547Z,2.43
2022-08-05T23:42:38.623Z,2.20
2022-08-05T23:45:13.838Z,2.03
2022-08-05T23:47:47.815Z,2.47
2022-08-05T23:50:16.984Z,2.20
2022-08-05T23:52:50.007Z,2.23
2022-08-05T23:55:19.108Z,2.10
2022-08-05T23:57:49.033Z,2.80
